Aérodrome :
LOGIN :

S'inscrire | Disclaimer

   EN    FR    IT 

 










Légende :    VFR   VFR Marginal   IFR   IFR Intensif   IFR Très Intensif
Visi : 
Plafond : 
>= 8 km
>= 3000ft
5 à 8 km
1000 à 3000 ft
1500m à 5 km
500 à 1000 ft
800 à 1500m
200 à 500 ft
< 800m
< 200 ft
Symboles :   Orages  Brouillard  Fortes neiges  Fortes précipitations  Vent > 20 kt
SIGMETs :   Divers  Orages  Givrage  Turbulence  Onde Orograph.  Cendres Volcan.






- Altitude de l'aérodrome : 1 ft


EGCK - Caernarfon

DERNIER METAR :
  • 140620Z AUTO 04018KT 9999 BKN017/// 07/04 Q0997

METARs EXPIRÉS :
  • 140550Z AUTO 04018KT 9999 BKN018/// BKN031/// 07/03 Q0997
  • 140520Z AUTO 04022KT 9999 SCT025/// 06/03 Q0996
  • 140450Z AUTO 04020KT 9999 NCD 06/03 Q0995
  • 140420Z AUTO 05020KT 9999 NCD 06/03 Q0994
  • 140350Z AUTO 04022KT 9999 NCD 06/03 Q0994

TAF TAF EGCK
Valide du 14 à 06h jusqu'au 14 à 15h UTC


140456Z 1406/1415 02020KT 9999 SCT030
TEMPO 1406/1415 03023G33KT



MET'MAP, la Météo Aéronautique d'un coup d'oeil ! - Copyright ORBIFLY Décembre 2007 - Disclaimer

ORBIFLY MET'MAP TEAM :

Programmation & Développement : Alexandra Zaïnal
Conception & Développement : Baudouin d'Aumeries
Co-Programmation & Développement : Marc-Olivier Méhu
Soutien technique & logistique : Manuel Goepfert

Contact : metmap@orbifly.com




SOURCES & CREDITS :

   NOAA